Terminal Aerodrome Forecast
Issued by NWS Anchorage, AK

Home | Current Version | Previous Version | Text Only | Print | Product List | Glossary On
Versions: 1 2 3 4 5 6 7 8 9 10 11 12 13 14 15 16 17 18 19 20 21 22 23
000
FTAK31 PANC 241737
TAFANC
TAF
PANC 241737Z 2418/2524 VRB03KT P6SM -RA FEW006 SCT060 OVC100
     FM250900 16010KT 6SM -RA BR SCT020 BKN035 OVC050 PROB30
      2509/2515 3SM RA BR SCT006 BKN010 OVC025
     FM251500 20012KT P6SM -SHRA BKN060=

USA.gov is the U.S. government's official web portal to all federal, state and local government web resources and services.